Time;durP1;ratioP1;P1;durP2;ratioP2;P2;SDS_P1;SDS_P2;PMS_P1;PMS_P2;Temp;Humidity;BMP_temperature;BMP_pressure;BME280_temperature;BME280_humidity;BME280_pressure;Samples;Min_cycle;Max_cycle;Signal;HPM_P1;HPM_P2
2024/01/11 00:00:51;;;;;;;8.55;2.33;;;28.10;99.90;;;;;;5113183;28;20209;-78
2024/01/11 00:03:22;;;;;;;8.52;2.80;;;28.20;99.90;;;;;;5111121;28;20194;-78
2024/01/11 00:05:54;;;;;;;6.57;2.38;;;28.40;99.90;;;;;;5092655;28;20195;-79
2024/01/11 00:08:25;;;;;;;9.40;2.65;;;28.50;99.90;;;;;;5090133;28;20252;-79
2024/01/11 00:10:56;;;;;;;6.88;2.58;;;28.60;99.90;;;;;;5090437;28;20195;-79
2024/01/11 00:13:27;;;;;;;7.68;2.40;;;28.70;99.90;;;;;;5090663;28;20206;-79
2024/01/11 00:15:57;;;;;;;9.73;2.70;;;28.70;99.90;;;;;;5090250;28;20242;-80
2024/01/11 00:18:28;;;;;;;5.00;2.08;;;28.90;99.90;;;;;;5090668;28;20211;-79
2024/01/11 00:21:01;;;;;;;7.97;2.30;;;28.90;99.90;;;;;;5089481;28;20550;-79
2024/01/11 00:23:32;;;;;;;5.57;1.85;;;28.90;99.90;;;;;;5089098;28;20210;-79
2024/01/11 00:26:03;;;;;;;5.05;1.85;;;29.00;99.90;;;;;;5102671;28;20576;-79
2024/01/11 00:28:34;;;;;;;7.05;1.95;;;29.10;99.90;;;;;;5110680;28;20199;-77
2024/01/11 00:31:04;;;;;;;6.00;2.05;;;29.10;99.90;;;;;;5111018;28;20210;-78
2024/01/11 00:33:35;;;;;;;5.65;2.25;;;29.30;99.90;;;;;;5107180;28;20641;-78
2024/01/11 00:36:08;;;;;;;7.28;2.25;;;29.20;99.90;;;;;;5100244;28;20226;-79
2024/01/11 00:38:39;;;;;;;7.18;2.60;;;29.20;99.90;;;;;;5105264;28;20199;-78
2024/01/11 00:41:10;;;;;;;8.07;2.30;;;29.30;99.90;;;;;;5101532;28;20191;-78
2024/01/11 00:43:40;;;;;;;8.45;2.65;;;29.30;99.90;;;;;;5093806;28;20191;-78
2024/01/11 00:46:12;;;;;;;6.00;2.25;;;29.20;99.90;;;;;;5102953;28;20205;-79
2024/01/11 00:48:42;;;;;;;6.78;2.15;;;29.30;99.90;;;;;;5114123;28;20225;-79
2024/01/11 00:51:15;;;;;;;3.92;1.95;;;29.20;99.90;;;;;;5109052;28;20195;-79
2024/01/11 00:53:46;;;;;;;10.77;5.78;;;29.30;99.90;;;;;;5113911;28;20202;-79
2024/01/11 00:56:20;;;;;;;9.13;5.82;;;29.20;99.90;;;;;;5112819;28;20194;-80
2024/01/11 00:58:51;;;;;;;10.15;5.50;;;29.00;99.90;;;;;;5094027;28;20195;-79
2024/01/11 01:01:22;;;;;;;11.77;5.50;;;29.00;99.90;;;;;;5093674;28;20199;-78
2024/01/11 01:03:52;;;;;;;7.80;5.18;;;28.80;99.90;;;;;;5096744;28;20191;-78
2024/01/11 01:06:25;;;;;;;8.70;4.97;;;28.80;99.90;;;;;;5093465;28;20198;-79
2024/01/11 01:08:56;;;;;;;10.38;3.17;;;28.90;99.90;;;;;;5100106;28;20222;-79
2024/01/11 01:11:27;;;;;;;9.85;4.95;;;28.90;99.90;;;;;;5114500;28;20207;-78
2024/01/11 01:13:58;;;;;;;12.88;6.22;;;28.90;99.90;;;;;;5099484;28;20195;-79
2024/01/11 01:16:29;;;;;;;7.63;5.88;;;28.80;99.90;;;;;;5093885;28;20202;-78
2024/01/11 01:19:00;;;;;;;13.02;6.68;;;28.70;99.90;;;;;;5101379;28;20187;-78
2024/01/11 01:21:32;;;;;;;7.22;5.63;;;28.70;99.90;;;;;;5113856;28;20190;-78
2024/01/11 01:24:03;;;;;;;11.50;5.90;;;28.60;99.90;;;;;;5110442;28;20573;-77
2024/01/11 01:26:34;;;;;;;10.75;6.78;;;28.60;99.90;;;;;;5094328;28;20286;-78
2024/01/11 01:29:05;;;;;;;8.93;5.90;;;28.60;99.90;;;;;;5097351;28;20274;-77
2024/01/11 01:31:37;;;;;;;10.95;6.22;;;28.60;99.90;;;;;;5113507;27;20202;-78
2024/01/11 01:34:08;;;;;;;8.70;5.85;;;28.60;99.90;;;;;;5106972;28;20207;-77
2024/01/11 01:36:40;;;;;;;10.55;6.03;;;28.50;99.90;;;;;;5092972;28;20210;-77
2024/01/11 01:39:11;;;;;;;9.63;6.10;;;28.50;99.90;;;;;;5093341;28;20214;-78
2024/01/11 01:41:42;;;;;;;8.60;5.97;;;28.50;99.90;;;;;;5093642;28;20213;-78
2024/01/11 01:44:13;;;;;;;7.35;5.35;;;28.40;99.90;;;;;;5092862;28;20211;-78
2024/01/11 01:46:43;;;;;;;9.85;5.70;;;28.40;99.90;;;;;;5092056;28;20229;-78
2024/01/11 01:49:18;;;;;;;9.73;5.90;;;28.30;99.90;;;;;;5109086;28;20226;-78
2024/01/11 01:51:51;;;;;;;8.30;4.93;;;28.30;99.90;;;;;;5111729;28;20210;-78
2024/01/11 01:54:23;;;;;;;8.82;5.85;;;28.40;99.90;;;;;;5109220;28;20206;-78
2024/01/11 01:56:55;;;;;;;9.63;5.82;;;28.60;99.90;;;;;;5098981;28;20292;-78
2024/01/11 01:59:28;;;;;;;10.60;5.85;;;28.70;99.90;;;;;;5104472;28;20191;-78
2024/01/11 02:01:59;;;;;;;8.40;5.88;;;28.80;99.90;;;;;;5113449;28;20203;-79
2024/01/11 02:04:31;;;;;;;8.45;5.57;;;28.80;99.90;;;;;;5105844;28;20198;-78
2024/01/11 02:07:04;;;;;;;8.68;5.53;;;28.80;99.90;;;;;;5095886;28;20199;-78
2024/01/11 02:09:35;;;;;;;9.57;5.55;;;28.90;99.90;;;;;;5112791;27;20221;-77
2024/01/11 02:12:12;;;;;;;27.05;11.55;;;29.00;99.90;;;;;;5114060;28;20210;-79
2024/01/11 02:14:43;;;;;;;10.70;6.55;;;29.00;99.90;;;;;;5114216;28;20242;-78
2024/01/11 02:17:42;;;;;;;9.18;5.70;;;29.10;99.90;;;;;;5101365;28;20219;-77
2024/01/11 02:20:25;;;;;;;7.15;5.85;;;28.90;99.90;;;;;;5093426;28;20546;-78
2024/01/11 02:23:02;;;;;;;9.30;5.68;;;29.00;99.90;;;;;;5107036;28;20634;-77
2024/01/11 02:25:34;;;;;;;9.30;6.15;;;28.90;99.90;;;;;;5092670;28;20218;-77
2024/01/11 02:28:05;;;;;;;8.00;5.32;;;28.90;99.90;;;;;;5092733;28;20566;-77
2024/01/11 02:30:36;;;;;;;10.05;5.72;;;28.70;99.90;;;;;;5092429;28;20202;-77
2024/01/11 02:33:07;;;;;;;10.35;5.45;;;28.60;99.90;;;;;;5100444;28;21466;-78
2024/01/11 02:35:41;;;;;;;10.32;6.13;;;28.40;99.90;;;;;;5095298;28;20692;-79
2024/01/11 02:38:12;;;;;;;9.10;5.60;;;28.40;99.90;;;;;;5096805;28;20234;-78
2024/01/11 02:40:45;;;;;;;8.63;5.95;;;28.40;99.90;;;;;;5091870;28;20274;-78
2024/01/11 02:43:16;;;;;;;9.60;5.85;;;28.50;99.90;;;;;;5092322;28;20206;-78
2024/01/11 02:45:47;;;;;;;7.35;5.20;;;28.50;99.90;;;;;;5106485;28;20198;-78
2024/01/11 02:48:18;;;;;;;6.32;5.18;;;28.50;99.90;;;;;;5112399;28;20228;-78
2024/01/11 02:50:48;;;;;;;7.53;5.50;;;28.40;99.90;;;;;;5110583;28;20194;-78
2024/01/11 02:53:19;;;;;;;7.40;5.15;;;28.50;99.90;;;;;;5111642;28;20209;-78
2024/01/11 02:55:54;;;;;;;7.10;4.75;;;28.50;99.90;;;;;;5096054;28;20233;-78
2024/01/11 02:58:25;;;;;;;6.63;4.90;;;28.50;99.90;;;;;;5110182;28;20594;-79
2024/01/11 03:00:56;;;;;;;8.30;5.03;;;28.50;99.90;;;;;;5111843;28;20195;-79
2024/01/11 03:03:26;;;;;;;8.50;4.85;;;28.40;99.90;;;;;;5111739;28;20195;-79
2024/01/11 03:05:57;;;;;;;8.63;4.75;;;28.40;99.90;;;;;;5095889;28;20199;-79
2024/01/11 03:08:28;;;;;;;9.18;4.50;;;28.40;99.90;;;;;;5108461;28;20198;-79
2024/01/11 03:11:01;;;;;;;9.73;4.95;;;28.30;99.90;;;;;;5105367;28;20284;-78
2024/01/11 03:13:32;;;;;;;9.68;5.03;;;28.30;99.90;;;;;;5091883;28;20282;-79
2024/01/11 03:16:03;;;;;;;7.15;4.38;;;28.30;99.90;;;;;;5091561;28;20229;-79
2024/01/11 03:18:37;;;;;;;6.75;4.13;;;28.40;99.90;;;;;;5092171;28;20210;-79
2024/01/11 03:21:07;;;;;;;6.22;3.85;;;28.50;99.90;;;;;;5098607;28;20653;-79
2024/01/11 03:23:38;;;;;;;6.35;3.40;;;28.50;99.90;;;;;;5101366;28;20195;-77
2024/01/11 03:26:16;;;;;;;6.03;3.67;;;28.60;99.90;;;;;;5089852;28;20223;-78
2024/01/11 03:28:47;;;;;;;5.40;3.42;;;28.60;99.90;;;;;;5094456;28;20199;-79
2024/01/11 03:31:18;;;;;;;6.88;3.83;;;28.90;99.90;;;;;;5105131;28;20190;-78
2024/01/11 03:33:48;;;;;;;5.20;3.65;;;29.00;99.90;;;;;;5092899;28;22209;-78
2024/01/11 03:36:19;;;;;;;6.63;3.60;;;29.20;99.90;;;;;;5106868;28;20356;-78
2024/01/11 03:38:50;;;;;;;5.25;2.85;;;29.20;99.90;;;;;;5099502;28;20703;-77
2024/01/11 03:41:23;;;;;;;4.95;3.20;;;29.10;99.90;;;;;;5110035;28;20618;-77
2024/01/11 03:43:54;;;;;;;4.28;2.47;;;29.10;99.90;;;;;;5090945;28;20278;-77
2024/01/11 03:46:24;;;;;;;4.47;2.72;;;29.10;99.90;;;;;;5089893;28;20201;-77
2024/01/11 03:48:55;;;;;;;4.68;2.40;;;29.10;99.90;;;;;;5090506;28;20237;-78
2024/01/11 03:51:26;;;;;;;3.88;2.33;;;29.00;99.90;;;;;;5089806;28;20196;-78
2024/01/11 03:53:57;;;;;;;5.15;2.60;;;29.00;99.90;;;;;;5093747;28;20197;-77
2024/01/11 03:56:30;;;;;;;5.10;2.90;;;29.10;99.90;;;;;;5099485;28;20226;-78
2024/01/11 03:59:00;;;;;;;4.88;2.75;;;29.10;99.90;;;;;;5093411;28;20199;-77
2024/01/11 04:01:31;;;;;;;4.13;2.50;;;29.10;99.90;;;;;;5092528;28;20225;-79
2024/01/11 04:04:05;;;;;;;4.45;2.28;;;29.20;99.90;;;;;;5079261;28;20700;-76
2024/01/11 04:06:37;;;;;;;7.15;2.83;;;29.30;99.90;;;;;;5094738;28;20225;-77
2024/01/11 04:09:08;;;;;;;3.65;1.92;;;29.50;99.90;;;;;;5102768;28;20778;-77
2024/01/11 04:11:41;;;;;;;6.07;2.35;;;29.70;99.90;;;;;;5105398;28;20222;-78
2024/01/11 04:14:12;;;;;;;4.40;2.17;;;29.80;99.90;;;;;;5086560;28;20227;-77
2024/01/11 04:16:44;;;;;;;4.10;1.92;;;29.80;99.90;;;;;;5086388;28;20311;-78
2024/01/11 04:19:15;;;;;;;3.05;1.70;;;29.70;99.90;;;;;;5093170;28;20215;-78
2024/01/11 04:21:45;;;;;;;3.72;1.80;;;29.70;99.90;;;;;;5101864;28;20198;-78
2024/01/11 04:24:16;;;;;;;4.75;1.90;;;29.60;99.90;;;;;;5099244;28;20201;-78
2024/01/11 04:26:49;;;;;;;4.22;2.00;;;29.60;99.90;;;;;;5095050;28;20249;-77
2024/01/11 04:29:27;;;;;;;3.92;1.90;;;29.50;99.90;;;;;;5097261;28;20253;-76
2024/01/11 04:31:58;;;;;;;3.80;1.75;;;29.40;99.90;;;;;;5110151;28;20202;-78
2024/01/11 04:34:29;;;;;;;4.32;1.88;;;29.50;99.90;;;;;;5098887;28;20187;-78
2024/01/11 04:37:00;;;;;;;4.30;2.08;;;29.50;99.90;;;;;;5089765;28;20681;-78
2024/01/11 04:39:31;;;;;;;4.15;1.80;;;29.50;99.90;;;;;;5089379;28;20662;-79
2024/01/11 04:42:06;;;;;;;2.38;1.42;;;29.50;99.90;;;;;;5101229;28;20244;-77
2024/01/11 04:44:44;;;;;;;3.95;1.83;;;29.50;99.90;;;;;;5090288;28;20205;-77
2024/01/11 04:47:14;;;;;;;3.70;1.77;;;29.50;99.90;;;;;;5090980;28;20199;-77
2024/01/11 04:49:45;;;;;;;5.30;1.70;;;29.60;99.90;;;;;;5090218;28;20297;-77
2024/01/11 04:52:16;;;;;;;2.42;1.58;;;29.60;99.90;;;;;;5100127;28;20203;-78
2024/01/11 04:54:46;;;;;;;2.97;1.70;;;29.60;99.90;;;;;;5099200;28;20634;-79
2024/01/11 04:57:19;;;;;;;3.85;1.50;;;29.60;99.90;;;;;;5089876;28;20230;-80
2024/01/11 04:59:50;;;;;;;3.33;1.70;;;29.80;99.90;;;;;;5100442;28;20199;-78
2024/01/11 05:02:22;;;;;;;3.13;1.33;;;29.90;99.90;;;;;;5108922;28;20194;-79
2024/01/11 05:04:53;;;;;;;3.78;1.35;;;30.00;99.90;;;;;;5104677;28;20195;-78
2024/01/11 05:07:24;;;;;;;3.38;1.50;;;30.20;99.90;;;;;;5102920;28;20194;-77
2024/01/11 05:09:54;;;;;;;5.18;1.70;;;30.40;99.90;;;;;;5110132;28;20205;-78
2024/01/11 05:12:27;;;;;;;3.67;1.50;;;30.40;99.90;;;;;;5094276;28;20199;-78
2024/01/11 05:14:58;;;;;;;2.92;1.30;;;30.40;99.90;;;;;;5090070;28;20218;-79
2024/01/11 05:17:29;;;;;;;3.58;1.20;;;30.30;99.90;;;;;;5099245;28;20226;-78
2024/01/11 05:20:00;;;;;;;3.67;1.38;;;30.10;99.90;;;;;;5114087;28;20565;-78
2024/01/11 05:22:30;;;;;;;2.97;1.17;;;30.00;99.90;;;;;;5099229;28;20257;-78
2024/01/11 05:25:01;;;;;;;3.40;1.20;;;30.10;99.90;;;;;;5108253;28;20194;-79
2024/01/11 05:27:34;;;;;;;4.38;1.52;;;30.20;99.90;;;;;;5108711;28;20715;-78
2024/01/11 05:30:05;;;;;;;4.88;1.40;;;30.20;99.90;;;;;;5106284;28;20201;-78
2024/01/11 05:32:37;;;;;;;3.65;1.25;;;30.50;99.90;;;;;;5108489;28;20654;-78
2024/01/11 05:35:10;;;;;;;3.33;1.20;;;30.70;99.90;;;;;;5106265;28;20282;-78
2024/01/11 05:37:40;;;;;;;3.55;1.30;;;30.70;99.90;;;;;;5108031;28;20221;-78
2024/01/11 05:40:12;;;;;;;4.40;1.42;;;30.90;99.90;;;;;;5100939;28;20199;-78
2024/01/11 05:42:44;;;;;;;2.38;1.10;;;30.80;99.90;;;;;;5094342;28;20196;-77
2024/01/11 05:45:16;;;;;;;4.57;1.17;;;30.70;99.90;;;;;;5114670;28;20669;-78
2024/01/11 05:47:47;;;;;;;4.57;1.42;;;30.60;99.90;;;;;;5107893;28;20198;-77
2024/01/11 05:50:18;;;;;;;3.90;1.10;;;30.50;99.90;;;;;;5093735;28;20239;-77
2024/01/11 05:52:49;;;;;;;5.13;1.60;;;30.30;99.90;;;;;;5093144;28;20274;-77
2024/01/11 05:55:20;;;;;;;3.15;1.20;;;30.10;99.90;;;;;;5101569;28;20645;-78
2024/01/11 05:57:53;;;;;;;4.38;1.60;;;29.90;99.90;;;;;;5096555;28;20231;-78
2024/01/11 06:00:24;;;;;;;2.80;1.35;;;29.90;99.90;;;;;;5101284;28;20195;-78
2024/01/11 06:02:54;;;;;;;3.95;1.45;;;29.80;99.90;;;;;;5101625;28;20203;-79
2024/01/11 06:05:26;;;;;;;4.97;1.30;;;29.80;99.90;;;;;;5102305;28;20198;-79
2024/01/11 06:07:56;;;;;;;3.92;1.30;;;29.70;99.90;;;;;;5106251;28;20192;-78
2024/01/11 06:10:27;;;;;;;5.00;1.30;;;29.60;99.90;;;;;;5106926;28;20214;-78
2024/01/11 06:13:00;;;;;;;4.43;1.52;;;29.50;99.90;;;;;;5093607;28;20209;-79
2024/01/11 06:15:31;;;;;;;4.30;2.28;;;29.50;99.90;;;;;;5112812;28;20201;-78
2024/01/11 06:18:02;;;;;;;4.65;1.55;;;29.40;99.90;;;;;;5097812;28;20758;-78
2024/01/11 06:20:32;;;;;;;3.10;1.35;;;29.40;99.90;;;;;;5093049;28;20203;-78
2024/01/11 06:23:03;;;;;;;4.53;1.30;;;29.40;99.90;;;;;;5099762;28;20755;-78
2024/01/11 06:25:34;;;;;;;5.07;1.30;;;29.30;99.90;;;;;;5110654;28;20209;-79
2024/01/11 06:28:09;;;;;;;4.85;1.33;;;29.40;99.90;;;;;;5101865;28;21067;-78
2024/01/11 06:30:40;;;;;;;3.45;1.25;;;29.50;99.90;;;;;;5099243;28;20198;-77
2024/01/11 06:33:11;;;;;;;3.67;1.40;;;29.80;99.90;;;;;;5108862;28;20529;-78
2024/01/11 06:35:41;;;;;;;4.68;1.40;;;30.00;99.90;;;;;;5111663;28;20217;-78
2024/01/11 06:38:15;;;;;;;3.38;1.33;;;30.30;99.90;;;;;;5112223;28;20281;-78
2024/01/11 06:40:46;;;;;;;4.65;1.70;;;30.30;99.90;;;;;;5110631;28;20195;-78
2024/01/11 06:43:19;;;;;;;3.35;1.35;;;30.20;99.90;;;;;;5090603;28;20199;-77
2024/01/11 06:45:49;;;;;;;4.63;1.52;;;30.00;99.90;;;;;;5098583;28;20195;-76
2024/01/11 06:48:20;;;;;;;4.93;1.42;;;29.90;99.90;;;;;;5094223;28;20735;-77
2024/01/11 06:50:51;;;;;;;4.43;1.60;;;29.70;99.90;;;;;;5091943;28;20201;-78
2024/01/11 06:53:22;;;;;;;4.03;1.48;;;29.60;99.90;;;;;;5101625;28;20574;-78
2024/01/11 06:55:52;;;;;;;4.57;1.60;;;29.80;99.90;;;;;;5091692;28;20566;-79
2024/01/11 06:58:27;;;;;;;3.60;2.13;;;29.90;99.90;;;;;;5091765;28;20202;-79
2024/01/11 07:00:58;;;;;;;4.80;2.10;;;29.80;99.90;;;;;;5092291;28;20202;-78
2024/01/11 07:03:29;;;;;;;4.65;2.00;;;29.70;99.90;;;;;;5095790;28;20681;-78
2024/01/11 07:05:59;;;;;;;4.13;1.70;;;29.50;99.90;;;;;;5095513;28;20194;-78
2024/01/11 07:08:30;;;;;;;3.30;1.60;;;29.30;99.90;;;;;;5091568;28;20294;-78
2024/01/11 07:11:02;;;;;;;3.05;1.50;;;29.20;99.90;;;;;;5099866;28;20582;-78
2024/01/11 07:13:35;;;;;;;5.70;2.00;;;29.10;99.90;;;;;;5091060;28;20234;-78
2024/01/11 07:16:06;;;;;;;3.83;1.90;;;29.00;99.90;;;;;;5102001;28;20650;-78
2024/01/11 07:18:37;;;;;;;5.45;1.90;;;28.90;99.90;;;;;;5112275;28;20224;-78
2024/01/11 07:21:08;;;;;;;7.28;2.05;;;28.80;99.90;;;;;;5108017;28;20195;-78
2024/01/11 07:23:39;;;;;;;4.25;1.70;;;28.70;99.90;;;;;;5092373;28;20197;-78
2024/01/11 07:26:09;;;;;;;4.60;1.92;;;28.60;99.90;;;;;;5092079;28;20202;-78
2024/01/11 07:28:42;;;;;;;5.65;2.60;;;28.60;99.90;;;;;;5092031;28;20191;-78
2024/01/11 07:31:14;;;;;;;4.32;1.67;;;28.60;99.90;;;;;;5105887;28;20210;-78
2024/01/11 07:33:45;;;;;;;4.47;1.80;;;28.90;99.90;;;;;;5093263;28;20199;-79
2024/01/11 07:36:16;;;;;;;4.20;1.70;;;29.20;99.90;;;;;;5091059;28;20274;-79
2024/01/11 07:38:46;;;;;;;6.85;2.65;;;29.60;99.90;;;;;;5095386;28;20195;-78
2024/01/11 07:41:17;;;;;;;5.32;2.03;;;29.90;99.90;;;;;;5107869;28;20199;-79
2024/01/11 07:43:50;;;;;;;4.43;1.73;;;30.30;99.90;;;;;;5109513;28;20199;-79
2024/01/11 07:46:20;;;;;;;4.28;1.67;;;30.10;99.90;;;;;;5100642;28;20196;-79
2024/01/11 07:48:51;;;;;;;3.85;1.60;;;29.90;99.90;;;;;;5110162;28;20252;-79
2024/01/11 07:51:22;;;;;;;4.50;1.77;;;29.70;99.90;;;;;;5109676;28;20203;-79
2024/01/11 07:53:53;;;;;;;4.32;2.42;;;29.50;99.90;;;;;;5109767;28;20198;-79
2024/01/11 07:56:23;;;;;;;5.50;2.60;;;29.40;99.90;;;;;;5096415;28;20634;-79
2024/01/11 07:58:56;;;;;;;5.65;2.38;;;29.30;99.90;;;;;;5093684;28;20190;-79
2024/01/11 08:01:27;;;;;;;5.20;2.00;;;29.10;99.90;;;;;;5096437;28;20202;-79
2024/01/11 08:03:57;;;;;;;6.28;2.40;;;29.00;99.90;;;;;;5104670;28;20206;-79
2024/01/11 08:06:28;;;;;;;5.32;3.30;;;28.80;99.90;;;;;;5095088;28;20191;-79
2024/01/11 08:08:59;;;;;;;7.45;3.58;;;28.70;99.90;;;;;;5110661;28;20195;-78
2024/01/11 08:11:30;;;;;;;7.05;3.08;;;28.70;99.90;;;;;;5109500;28;20202;-78
2024/01/11 08:14:02;;;;;;;6.72;3.25;;;28.60;99.90;;;;;;5105714;28;20202;-78
2024/01/11 08:16:33;;;;;;;5.90;2.13;;;28.60;99.90;;;;;;5097352;28;20218;-80
2024/01/11 08:19:04;;;;;;;4.72;2.15;;;28.60;99.90;;;;;;5092229;28;20211;-79
2024/01/11 08:21:35;;;;;;;7.20;4.13;;;28.50;99.90;;;;;;5095107;28;20195;-79
2024/01/11 08:24:06;;;;;;;7.32;3.50;;;28.50;99.90;;;;;;5096133;28;20661;-78
2024/01/11 08:26:37;;;;;;;8.48;2.72;;;28.50;99.90;;;;;;5090805;28;20200;-78
2024/01/11 08:29:10;;;;;;;6.03;3.15;;;28.40;99.90;;;;;;5094427;28;20203;-78
2024/01/11 08:31:40;;;;;;;5.97;2.95;;;28.30;99.90;;;;;;5093278;28;20199;-78
2024/01/11 08:34:12;;;;;;;5.63;3.30;;;28.30;99.90;;;;;;5090117;28;20198;-78
2024/01/11 08:36:42;;;;;;;4.13;2.30;;;28.20;99.90;;;;;;5091896;28;20223;-78
2024/01/11 08:39:14;;;;;;;5.00;2.10;;;28.10;99.90;;;;;;5095161;28;20195;-79
2024/01/11 08:41:47;;;;;;;5.78;2.20;;;28.10;99.90;;;;;;5103380;28;20191;-78
2024/01/11 08:44:20;;;;;;;5.80;2.13;;;28.00;99.90;;;;;;5089126;28;20207;-79
2024/01/11 08:46:50;;;;;;;5.78;2.08;;;28.00;99.90;;;;;;5099800;28;20198;-79
2024/01/11 08:49:21;;;;;;;8.63;2.20;;;27.90;99.90;;;;;;5089936;28;20223;-79
2024/01/11 08:51:52;;;;;;;5.75;2.42;;;27.80;99.90;;;;;;5104105;28;20649;-79
2024/01/11 08:54:23;;;;;;;6.95;2.70;;;27.80;99.90;;;;;;5094086;28;20194;-78
2024/01/11 08:56:53;;;;;;;8.02;2.28;;;27.80;99.90;;;;;;5093988;28;20230;-77
2024/01/11 08:59:26;;;;;;;8.75;2.63;;;27.80;99.90;;;;;;5093378;28;20203;-77
2024/01/11 09:01:57;;;;;;;5.07;2.15;;;27.80;99.90;;;;;;5099144;28;20191;-78
2024/01/11 09:04:29;;;;;;;4.70;2.00;;;27.80;99.90;;;;;;5098462;28;20199;-77
2024/01/11 09:07:00;;;;;;;5.68;1.90;;;27.80;99.90;;;;;;5093731;28;20638;-78
2024/01/11 09:09:31;;;;;;;5.13;1.52;;;27.70;99.90;;;;;;5111338;28;20202;-77
2024/01/11 09:12:02;;;;;;;4.72;1.50;;;27.70;99.90;;;;;;5097264;28;20218;-78
2024/01/11 09:14:35;;;;;;;6.05;1.67;;;27.70;99.90;;;;;;5111194;28;20195;-78
2024/01/11 09:17:06;;;;;;;4.35;1.33;;;27.70;99.90;;;;;;5097205;28;20298;-77
2024/01/11 09:19:37;;;;;;;4.72;1.50;;;27.70;99.90;;;;;;5093913;28;20203;-78
2024/01/11 09:22:09;;;;;;;5.95;1.55;;;27.70;99.90;;;;;;5108218;28;20198;-78
2024/01/11 09:24:40;;;;;;;5.90;1.70;;;27.70;99.90;;;;;;5113853;28;20202;-78
2024/01/11 09:27:11;;;;;;;6.70;1.60;;;27.70;99.90;;;;;;5106815;28;20199;-78
2024/01/11 09:29:47;;;;;;;7.80;1.70;;;27.70;99.90;;;;;;5094349;28;20567;-78
2024/01/11 09:32:18;;;;;;;3.80;1.42;;;27.60;99.90;;;;;;5111598;28;20649;-78
2024/01/11 09:34:51;;;;;;;2.72;1.20;;;27.60;99.90;;;;;;5111401;28;20197;-78
2024/01/11 09:37:25;;;;;;;5.90;1.70;;;27.60;99.90;;;;;;5093515;28;20226;-79
2024/01/11 09:39:56;;;;;;;5.43;1.25;;;27.50;99.90;;;;;;5092174;28;20286;-79
2024/01/11 09:42:31;;;;;;;6.40;1.45;;;27.40;99.90;;;;;;5093846;28;20203;-78
2024/01/11 09:45:15;;;;;;;5.38;1.25;;;27.40;99.90;;;;;;5093280;28;20217;-80
2024/01/11 09:47:48;;;;;;;5.05;1.17;;;27.30;99.90;;;;;;5103827;28;20200;-78
2024/01/11 09:50:21;;;;;;;5.63;1.50;;;27.30;99.90;;;;;;5106550;27;20199;-79
2024/01/11 09:52:54;;;;;;;5.97;1.38;;;27.20;99.90;;;;;;5098742;28;20614;-79
2024/01/11 09:55:25;;;;;;;7.10;1.23;;;27.20;99.90;;;;;;5092908;28;20200;-80
2024/01/11 10:07:54;;;;;;;5.65;1.10;;;27.00;99.90;;;;;;5109919;27;20295;-79
2024/01/11 10:10:31;;;;;;;4.53;1.10;;;27.00;99.90;;;;;;5112878;28;20587;-79
2024/01/11 10:13:03;;;;;;;3.42;1.00;;;27.10;99.90;;;;;;5098851;28;20278;-80
2024/01/11 10:16:13;;;;;;;4.43;1.10;;;27.00;99.90;;;;;;5112133;28;20546;-79
2024/01/11 10:22:04;;;;;;;4.05;1.00;;;27.00;99.90;;;;;;5063452;28;20340;-79
2024/01/11 10:25:10;;;;;;;5.55;1.30;;;27.00;99.90;;;;;;5113019;28;20195;-79
2024/01/11 10:28:07;;;;;;;5.32;1.20;;;27.00;99.90;;;;;;5110777;28;20653;-79
2024/01/11 10:31:17;;;;;;;4.00;1.00;;;27.00;99.90;;;;;;5091211;28;20230;-79
2024/01/11 10:33:57;;;;;;;3.95;1.10;;;27.00;99.90;;;;;;5094548;28;20199;-79
2024/01/11 10:36:49;;;;;;;4.88;1.20;;;27.00;99.90;;;;;;5092251;28;20199;-80
2024/01/11 10:39:53;;;;;;;5.95;1.20;;;27.00;99.90;;;;;;5092484;28;20570;-78
2024/01/11 10:42:29;;;;;;;3.80;1.27;;;27.00;99.90;;;;;;5095100;28;20657;-78
2024/01/11 10:45:38;;;;;;;4.38;1.20;;;27.00;99.90;;;;;;5095686;28;20202;-79
2024/01/11 10:54:22;;;;;;;6.53;1.40;;;27.00;99.90;;;;;;5090441;28;20206;-80
2024/01/11 10:57:27;;;;;;;3.50;1.17;;;27.00;99.90;;;;;;5091834;28;20203;-79
2024/01/11 11:00:14;;;;;;;6.05;1.63;;;27.00;99.90;;;;;;5091424;28;20667;-79
2024/01/11 11:02:46;;;;;;;4.63;1.00;;;26.90;99.90;;;;;;5099883;28;20195;-79
2024/01/11 11:05:22;;;;;;;7.10;1.23;;;26.90;99.90;;;;;;5091586;28;20191;-78
2024/01/11 11:08:06;;;;;;;5.70;1.17;;;26.90;99.90;;;;;;5092831;28;20666;-79
2024/01/11 11:10:47;;;;;;;4.32;1.00;;;26.80;99.90;;;;;;5098324;28;20203;-79
2024/01/11 11:13:19;;;;;;;4.10;1.00;;;26.80;99.90;;;;;;5091173;28;20684;-79
2024/01/11 11:15:52;;;;;;;3.53;1.00;;;26.80;99.90;;;;;;5090970;28;20238;-78
2024/01/11 11:18:23;;;;;;;6.22;1.20;;;26.80;99.90;;;;;;5090757;28;20714;-78
2024/01/11 11:20:54;;;;;;;4.65;1.27;;;26.80;99.90;;;;;;5095857;28;20221;-78
2024/01/11 11:23:25;;;;;;;5.18;1.20;;;26.80;99.90;;;;;;5092069;28;20298;-79
2024/01/11 11:25:58;;;;;;;4.93;1.27;;;26.70;99.90;;;;;;5107360;28;20203;-80
2024/01/11 11:28:30;;;;;;;7.88;1.30;;;26.70;99.90;;;;;;5110221;28;20190;-80
2024/01/11 11:31:04;;;;;;;8.48;1.10;;;26.70;99.90;;;;;;5102190;28;20922;-79
2024/01/11 11:33:35;;;;;;;6.00;1.38;;;26.60;99.90;;;;;;5090859;28;20263;-79
2024/01/11 11:36:07;;;;;;;4.47;1.30;;;26.60;99.90;;;;;;5095789;28;20199;-79
2024/01/11 11:38:39;;;;;;;2.28;1.00;;;26.60;99.90;;;;;;5090906;28;20310;-79
2024/01/11 11:41:11;;;;;;;5.65;1.33;;;26.60;99.90;;;;;;5091424;28;20202;-79
2024/01/11 11:43:43;;;;;;;4.80;1.15;;;26.60;99.90;;;;;;5101112;28;20199;-80
2024/01/11 11:46:16;;;;;;;6.07;0.90;;;26.60;99.90;;;;;;5109044;28;20201;-80
2024/01/11 11:48:54;;;;;;;5.63;0.95;;;26.50;99.90;;;;;;5109335;28;20226;-80
2024/01/11 11:51:25;;;;;;;5.95;1.48;;;26.50;99.90;;;;;;5094817;28;20195;-80
2024/01/11 11:53:57;;;;;;;3.97;0.88;;;26.50;99.90;;;;;;5109540;28;20209;-80
2024/01/11 11:56:31;;;;;;;6.80;1.20;;;26.50;99.90;;;;;;5101456;28;20205;-79
2024/01/11 11:59:03;;;;;;;5.10;1.20;;;26.50;99.90;;;;;;5100072;28;20351;-79
2024/01/11 12:01:37;;;;;;;4.28;1.05;;;26.60;99.90;;;;;;5109678;28;20214;-78
2024/01/11 12:04:10;;;;;;;8.30;1.17;;;26.50;99.90;;;;;;5110644;28;20284;-78
2024/01/11 12:06:41;;;;;;;5.28;1.20;;;26.40;99.90;;;;;;5089152;28;20205;-79
2024/01/11 12:09:12;;;;;;;4.60;1.23;;;26.40;99.90;;;;;;5096944;28;20658;-80
2024/01/11 12:11:43;;;;;;;5.82;1.40;;;26.40;99.90;;;;;;5090776;28;20206;-79
2024/01/11 12:14:14;;;;;;;5.47;1.23;;;26.40;99.90;;;;;;5102498;28;20205;-79
2024/01/11 12:16:47;;;;;;;5.53;1.20;;;26.50;99.90;;;;;;5090417;28;20199;-77
2024/01/11 12:19:19;;;;;;;4.82;1.25;;;26.50;99.90;;;;;;5105623;28;20696;-79
2024/01/11 12:21:50;;;;;;;4.70;1.40;;;26.50;99.90;;;;;;5110927;28;20203;-78
2024/01/11 12:24:21;;;;;;;4.15;1.20;;;26.50;99.90;;;;;;5108429;28;20198;-78
2024/01/11 12:26:53;;;;;;;6.20;1.30;;;26.50;99.90;;;;;;5107676;28;20194;-78
2024/01/11 12:29:24;;;;;;;6.55;1.30;;;26.40;99.90;;;;;;5107330;28;20202;-79
2024/01/11 12:31:58;;;;;;;7.07;1.10;;;26.40;99.90;;;;;;5090464;28;20199;-79
2024/01/11 12:34:30;;;;;;;4.22;1.02;;;26.50;99.90;;;;;;5090168;28;20199;-80
2024/01/11 12:37:05;;;;;;;3.35;1.00;;;26.40;99.90;;;;;;5091225;28;20191;-80
2024/01/11 12:39:36;;;;;;;6.60;1.30;;;26.40;99.90;;;;;;5089910;28;20314;-79
2024/01/11 12:42:07;;;;;;;4.47;1.20;;;26.40;99.90;;;;;;5102998;28;20201;-79
2024/01/11 12:44:39;;;;;;;4.75;1.10;;;26.40;99.90;;;;;;5088977;28;20198;-79
2024/01/11 12:47:15;;;;;;;4.40;1.17;;;26.40;99.90;;;;;;5096452;28;20657;-79
2024/01/11 12:49:48;;;;;;;4.18;1.00;;;26.30;99.90;;;;;;5102163;28;20236;-79
2024/01/11 12:52:20;;;;;;;5.03;1.20;;;26.40;99.90;;;;;;5096920;28;20224;-79
2024/01/11 12:54:56;;;;;;;5.63;1.17;;;26.30;99.90;;;;;;5108659;28;20198;-80
2024/01/11 12:57:27;;;;;;;6.60;1.20;;;26.30;99.90;;;;;;5107563;28;20546;-79
2024/01/11 13:00:11;;;;;;;6.78;1.45;;;26.30;99.90;;;;;;5092517;28;20223;-79
2024/01/11 13:02:46;;;;;;;5.00;1.10;;;26.30;99.90;;;;;;5105651;28;20248;-78
2024/01/11 13:05:18;;;;;;;6.70;1.50;;;26.30;99.90;;;;;;5096928;28;20276;-78
2024/01/11 13:07:49;;;;;;;5.45;1.23;;;26.30;99.90;;;;;;5101763;28;20199;-78
2024/01/11 13:10:20;;;;;;;6.15;1.30;;;26.30;99.90;;;;;;5090482;28;20646;-78
2024/01/11 13:12:51;;;;;;;6.65;1.33;;;26.30;99.90;;;;;;5103549;28;20198;-78
2024/01/11 13:15:23;;;;;;;4.80;1.10;;;26.30;99.90;;;;;;5109994;28;20199;-78
2024/01/11 13:17:55;;;;;;;6.85;1.30;;;26.30;99.90;;;;;;5090714;28;20219;-78
2024/01/11 13:20:26;;;;;;;5.40;1.48;;;26.30;99.90;;;;;;5090871;28;20551;-78
2024/01/11 13:23:15;;;;;;;4.95;1.17;;;26.30;99.90;;;;;;5102565;28;20653;-78
2024/01/11 13:25:47;;;;;;;4.18;1.10;;;26.30;99.90;;;;;;5093901;28;20199;-78
2024/01/11 13:28:18;;;;;;;3.67;1.17;;;26.40;99.90;;;;;;5089632;28;20204;-78
2024/01/11 13:30:50;;;;;;;7.30;1.50;;;26.30;99.90;;;;;;5100366;28;20195;-78
2024/01/11 13:33:23;;;;;;;5.55;1.50;;;26.30;99.90;;;;;;5091348;28;20210;-79